Time;durP1;ratioP1;P1;durP2;ratioP2;P2;SDS_P1;SDS_P2;PMS_P1;PMS_P2;Temp;Humidity;BMP_temperature;BMP_pressure;BME280_temperature;BME280_humidity;BME280_pressure;Samples;Min_cycle;Max_cycle;Signal;HPM_P1;HPM_P2
2021/11/19 00:01:23;;;;;;;32.45;21.88;;;;;;;;;;5033455;28;20214;-55
2021/11/19 00:03:52;;;;;;;35.22;22.35;;;;;;;;;;5033439;28;20549;-54
2021/11/19 00:06:20;;;;;;;36.95;22.20;;;;;;;;;;5033398;28;20218;-54
2021/11/19 00:08:50;;;;;;;35.42;21.10;;;;;;;;;;5033408;28;20209;-54
2021/11/19 00:11:18;;;;;;;33.55;21.50;;;;;;;;;;5033122;28;20735;-55
2021/11/19 00:13:47;;;;;;;33.93;19.80;;;;;;;;;;5033208;28;20226;-55
2021/11/19 00:16:15;;;;;;;33.53;20.47;;;;;;;;;;5033309;28;20468;-54
2021/11/19 00:18:42;;;;;;;27.63;18.63;;;;;;;;;;5032882;28;20448;-53
2021/11/19 00:21:11;;;;;;;30.63;19.13;;;;;;;;;;5033268;28;20455;-54
2021/11/19 00:23:40;;;;;;;31.90;19.52;;;;;;;;;;5033454;28;20673;-55
2021/11/19 00:26:08;;;;;;;33.08;19.50;;;;;;;;;;5037357;28;20579;-55
2021/11/19 00:28:35;;;;;;;29.87;18.73;;;;;;;;;;5037095;28;20210;-55
2021/11/19 00:31:03;;;;;;;26.42;18.45;;;;;;;;;;5037513;28;20453;-55
2021/11/19 00:33:31;;;;;;;30.47;18.17;;;;;;;;;;5037359;28;20335;-56
2021/11/19 00:35:58;;;;;;;28.45;18.20;;;;;;;;;;5036769;28;20511;-55
2021/11/19 00:38:28;;;;;;;26.15;18.70;;;;;;;;;;5037147;28;20593;-54
2021/11/19 00:40:56;;;;;;;28.93;19.00;;;;;;;;;;5037093;28;20280;-55
2021/11/19 00:43:25;;;;;;;24.27;17.75;;;;;;;;;;5036871;28;20452;-54
2021/11/19 00:45:52;;;;;;;27.90;17.60;;;;;;;;;;5037051;28;20227;-55
2021/11/19 00:48:20;;;;;;;27.30;19.53;;;;;;;;;;5036928;28;20452;-55
2021/11/19 00:50:49;;;;;;;24.17;18.20;;;;;;;;;;5036912;28;20455;-54
2021/11/19 00:53:16;;;;;;;29.42;17.80;;;;;;;;;;5036831;28;20502;-55
2021/11/19 00:55:45;;;;;;;30.70;20.33;;;;;;;;;;5036426;28;20222;-54
2021/11/19 00:58:13;;;;;;;29.27;19.10;;;;;;;;;;5036819;28;20453;-55
2021/11/19 01:00:42;;;;;;;30.13;19.20;;;;;;;;;;5036481;28;20456;-54
2021/11/19 01:03:09;;;;;;;32.00;19.60;;;;;;;;;;5036491;28;20959;-55
2021/11/19 01:05:37;;;;;;;31.53;20.43;;;;;;;;;;5036519;28;20456;-54
2021/11/19 01:08:04;;;;;;;30.50;20.20;;;;;;;;;;5036590;28;20451;-53
2021/11/19 01:10:34;;;;;;;30.10;19.50;;;;;;;;;;5036578;28;20445;-55
2021/11/19 01:13:02;;;;;;;31.80;20.50;;;;;;;;;;5036450;28;20448;-55
2021/11/19 01:15:38;;;;;;;27.00;19.37;;;;;;;;;;5036383;28;20440;-54
2021/11/19 01:18:06;;;;;;;29.80;20.37;;;;;;;;;;5036082;28;20425;-54
2021/11/19 01:20:35;;;;;;;34.40;21.47;;;;;;;;;;5036347;28;20436;-54
2021/11/19 01:23:10;;;;;;;33.40;21.10;;;;;;;;;;5036328;28;20472;-54
2021/11/19 01:25:37;;;;;;;28.20;21.93;;;;;;;;;;5035871;28;20896;-54
2021/11/19 01:28:07;;;;;;;28.70;19.20;;;;;;;;;;5036640;28;20441;-55
2021/11/19 01:30:36;;;;;;;32.60;22.57;;;;;;;;;;5037326;28;20209;-54
2021/11/19 01:33:04;;;;;;;28.83;20.93;;;;;;;;;;5038280;28;20944;-54
2021/11/19 01:35:32;;;;;;;27.00;21.53;;;;;;;;;;5036503;28;20480;-55
2021/11/19 01:37:59;;;;;;;27.30;21.00;;;;;;;;;;5036211;28;20472;-55
2021/11/19 01:40:31;;;;;;;29.08;21.65;;;;;;;;;;5036309;28;20520;-55
2021/11/19 01:43:01;;;;;;;27.93;19.90;;;;;;;;;;5036873;28;20552;-55
2021/11/19 01:45:34;;;;;;;27.47;19.77;;;;;;;;;;5036496;28;20441;-55
2021/11/19 01:48:02;;;;;;;30.90;19.63;;;;;;;;;;5037456;28;20458;-54
2021/11/19 01:50:31;;;;;;;26.77;18.93;;;;;;;;;;5041391;28;20456;-54
2021/11/19 01:53:02;;;;;;;25.50;18.53;;;;;;;;;;5037083;28;20457;-55
2021/11/19 01:55:32;;;;;;;27.50;19.30;;;;;;;;;;5035923;28;20489;-56
2021/11/19 01:58:02;;;;;;;25.30;19.13;;;;;;;;;;5035567;28;20210;-55
2021/11/19 02:00:33;;;;;;;22.70;18.40;;;;;;;;;;5035452;28;20449;-53
2021/11/19 02:03:00;;;;;;;29.00;20.15;;;;;;;;;;5035389;28;20905;-55
2021/11/19 02:05:29;;;;;;;25.70;19.20;;;;;;;;;;5035181;28;20194;-55
2021/11/19 02:07:59;;;;;;;31.00;18.95;;;;;;;;;;5035525;28;20457;-54
2021/11/19 02:10:34;;;;;;;28.17;19.85;;;;;;;;;;5035551;28;20205;-55
2021/11/19 02:13:04;;;;;;;26.13;18.73;;;;;;;;;;5035454;28;20189;-55
2021/11/19 02:15:34;;;;;;;23.53;18.10;;;;;;;;;;5035293;28;20468;-56
2021/11/19 02:18:03;;;;;;;27.70;17.23;;;;;;;;;;5035304;28;20453;-55
2021/11/19 02:20:32;;;;;;;24.37;17.00;;;;;;;;;;5035234;28;20721;-54
2021/11/19 02:23:01;;;;;;;22.50;17.23;;;;;;;;;;5035203;28;20441;-54
2021/11/19 02:25:30;;;;;;;27.03;16.17;;;;;;;;;;5035172;28;20243;-55
2021/11/19 02:27:58;;;;;;;21.57;14.73;;;;;;;;;;5034955;28;20449;-55
2021/11/19 02:30:28;;;;;;;19.70;16.03;;;;;;;;;;5035158;28;20457;-54
2021/11/19 02:33:00;;;;;;;20.00;15.07;;;;;;;;;;5035307;28;20445;-55
2021/11/19 02:35:29;;;;;;;19.53;14.77;;;;;;;;;;5034940;28;20469;-56
2021/11/19 02:37:58;;;;;;;19.63;14.90;;;;;;;;;;5034580;28;20453;-55
2021/11/19 02:40:27;;;;;;;18.90;15.60;;;;;;;;;;5034917;28;20807;-55
2021/11/19 02:42:56;;;;;;;22.40;15.53;;;;;;;;;;5034879;28;20441;-56
2021/11/19 02:45:25;;;;;;;20.90;15.30;;;;;;;;;;5034588;28;20971;-57
2021/11/19 02:47:52;;;;;;;19.30;15.40;;;;;;;;;;5033598;28;20441;-56
2021/11/19 02:50:21;;;;;;;20.13;14.70;;;;;;;;;;5035736;28;20479;-55
2021/11/19 02:52:50;;;;;;;21.00;14.93;;;;;;;;;;5036633;28;20453;-55
2021/11/19 02:55:18;;;;;;;18.03;15.47;;;;;;;;;;5036798;28;20481;-55
2021/11/19 02:57:46;;;;;;;22.70;15.10;;;;;;;;;;5036828;28;20532;-55
2021/11/19 03:00:15;;;;;;;19.73;14.70;;;;;;;;;;5036414;28;20449;-55
2021/11/19 03:02:42;;;;;;;16.00;13.33;;;;;;;;;;5035043;28;20445;-54
2021/11/19 03:05:11;;;;;;;23.30;14.90;;;;;;;;;;5034446;28;20512;-55
2021/11/19 03:07:39;;;;;;;19.77;14.10;;;;;;;;;;5034659;28;20491;-55
2021/11/19 03:10:09;;;;;;;19.73;14.23;;;;;;;;;;5034758;28;20449;-55
2021/11/19 03:12:37;;;;;;;17.30;14.50;;;;;;;;;;5034645;28;20456;-55
2021/11/19 03:15:07;;;;;;;19.50;15.10;;;;;;;;;;5035448;28;20485;-56
2021/11/19 03:17:35;;;;;;;17.80;14.37;;;;;;;;;;5034339;28;20473;-54
2021/11/19 03:20:02;;;;;;;22.27;13.80;;;;;;;;;;5034225;28;20446;-56
2021/11/19 03:22:31;;;;;;;17.37;14.50;;;;;;;;;;5034241;28;20447;-56
2021/11/19 03:25:00;;;;;;;17.10;13.77;;;;;;;;;;5034217;28;20491;-55
2021/11/19 03:27:29;;;;;;;19.90;15.17;;;;;;;;;;5034023;28;20848;-55
2021/11/19 03:29:56;;;;;;;23.90;15.33;;;;;;;;;;5033919;28;20516;-55
2021/11/19 03:32:28;;;;;;;18.70;14.27;;;;;;;;;;5033714;28;20452;-56
2021/11/19 03:34:56;;;;;;;17.07;14.07;;;;;;;;;;5034233;28;20472;-55
2021/11/19 03:37:23;;;;;;;17.37;14.87;;;;;;;;;;5033835;28;20477;-55
2021/11/19 03:39:51;;;;;;;20.30;15.50;;;;;;;;;;5034156;28;20457;-56
2021/11/19 03:42:21;;;;;;;16.98;13.65;;;;;;;;;;5033487;28;20445;-55
2021/11/19 03:44:51;;;;;;;19.67;15.70;;;;;;;;;;5034058;28;20182;-55
2021/11/19 03:47:20;;;;;;;20.33;15.73;;;;;;;;;;5033874;28;20465;-55
2021/11/19 03:49:48;;;;;;;19.27;15.20;;;;;;;;;;5033686;28;20441;-55
2021/11/19 03:52:18;;;;;;;21.03;14.83;;;;;;;;;;5033698;28;20450;-55
2021/11/19 03:54:47;;;;;;;21.23;14.27;;;;;;;;;;5033237;28;20963;-55
2021/11/19 03:57:16;;;;;;;22.03;14.80;;;;;;;;;;5033320;28;20468;-54
2021/11/19 03:59:45;;;;;;;20.17;16.50;;;;;;;;;;5033345;28;20453;-55
2021/11/19 04:02:13;;;;;;;18.87;14.67;;;;;;;;;;5033166;28;20455;-55
2021/11/19 04:04:40;;;;;;;19.50;15.10;;;;;;;;;;5033486;28;20449;-55
2021/11/19 04:08:54;;;;;;;21.07;14.93;;;;;;;;;;5091568;27;20542;-56
2021/11/19 04:11:21;;;;;;;20.13;15.10;;;;;;;;;;5091098;28;20453;-56
2021/11/19 04:13:49;;;;;;;20.90;15.40;;;;;;;;;;5090601;28;20447;-56
2021/11/19 04:16:18;;;;;;;21.30;14.80;;;;;;;;;;5090533;28;20470;-55
2021/11/19 04:18:46;;;;;;;18.07;14.00;;;;;;;;;;5090994;28;20446;-56
2021/11/19 04:21:14;;;;;;;22.63;15.90;;;;;;;;;;5084831;22;21004;-57
2021/11/19 04:23:41;;;;;;;24.27;15.35;;;;;;;;;;5050681;28;20456;-57
2021/11/19 04:26:11;;;;;;;23.50;16.37;;;;;;;;;;5050319;28;20596;-57
2021/11/19 04:28:38;;;;;;;23.50;17.07;;;;;;;;;;5050421;28;20503;-58
2021/11/19 04:31:06;;;;;;;23.87;16.10;;;;;;;;;;5050394;28;20465;-58
2021/11/19 04:33:34;;;;;;;19.00;15.77;;;;;;;;;;5050466;28;20448;-58
2021/11/19 04:36:02;;;;;;;22.67;15.67;;;;;;;;;;5050348;28;20440;-58
2021/11/19 04:38:29;;;;;;;25.80;16.90;;;;;;;;;;5050286;28;20444;-58
2021/11/19 04:40:57;;;;;;;24.17;18.00;;;;;;;;;;5050144;28;20473;-57
2021/11/19 04:43:27;;;;;;;23.83;18.23;;;;;;;;;;5050447;28;20448;-57
2021/11/19 04:45:54;;;;;;;22.90;16.57;;;;;;;;;;5050189;28;20444;-57
2021/11/19 04:48:24;;;;;;;26.00;16.80;;;;;;;;;;5049844;28;21014;-57
2021/11/19 04:50:52;;;;;;;25.67;15.60;;;;;;;;;;5049904;28;20833;-57
2021/11/19 04:53:22;;;;;;;27.30;18.87;;;;;;;;;;5050145;28;20445;-57
2021/11/19 04:55:49;;;;;;;30.97;20.73;;;;;;;;;;5049723;28;20436;-58
2021/11/19 04:58:17;;;;;;;32.37;20.03;;;;;;;;;;5050080;28;20842;-56
2021/11/19 05:00:47;;;;;;;29.03;19.23;;;;;;;;;;5049406;28;20468;-56
2021/11/19 05:03:15;;;;;;;28.23;19.60;;;;;;;;;;5050094;28;20429;-56
2021/11/19 05:05:43;;;;;;;33.77;23.37;;;;;;;;;;5049914;28;20931;-56
2021/11/19 05:08:11;;;;;;;32.13;20.63;;;;;;;;;;5049843;28;20472;-56
2021/11/19 05:10:39;;;;;;;33.07;22.57;;;;;;;;;;5049878;28;20468;-56
2021/11/19 05:13:07;;;;;;;32.93;20.73;;;;;;;;;;5049439;28;20451;-56
2021/11/19 05:15:35;;;;;;;36.57;24.37;;;;;;;;;;5049699;28;20453;-56
2021/11/19 05:18:04;;;;;;;37.22;23.80;;;;;;;;;;5048654;28;20437;-56
2021/11/19 05:20:32;;;;;;;35.35;24.02;;;;;;;;;;5035458;28;20623;-56
2021/11/19 05:22:59;;;;;;;35.20;24.53;;;;;;;;;;5036282;28;20210;-56
2021/11/19 05:25:28;;;;;;;34.47;24.17;;;;;;;;;;5035972;28;20949;-56
2021/11/19 05:27:56;;;;;;;42.22;24.65;;;;;;;;;;5035877;28;20477;-56
2021/11/19 05:30:24;;;;;;;34.77;22.40;;;;;;;;;;5035819;28;20222;-56
2021/11/19 05:32:52;;;;;;;35.40;23.47;;;;;;;;;;5036517;28;20448;-56
2021/11/19 05:35:21;;;;;;;38.83;25.00;;;;;;;;;;5036211;28;20452;-56
2021/11/19 05:37:48;;;;;;;35.83;22.23;;;;;;;;;;5035866;28;20862;-57
2021/11/19 05:40:17;;;;;;;37.43;25.23;;;;;;;;;;5036131;28;20226;-57
2021/11/19 05:42:44;;;;;;;39.20;24.37;;;;;;;;;;5035671;28;20445;-57
2021/11/19 05:45:13;;;;;;;34.77;21.90;;;;;;;;;;5035763;28;20495;-57
2021/11/19 05:47:40;;;;;;;37.83;23.03;;;;;;;;;;5035577;28;20857;-57
2021/11/19 05:50:09;;;;;;;40.83;26.20;;;;;;;;;;5036030;28;20472;-57
2021/11/19 05:52:38;;;;;;;41.10;26.27;;;;;;;;;;5035796;28;20452;-56
2021/11/19 05:55:06;;;;;;;39.40;23.97;;;;;;;;;;5035812;28;20456;-57
2021/11/19 05:57:34;;;;;;;40.08;25.10;;;;;;;;;;5035385;28;20846;-58
2021/11/19 06:00:01;;;;;;;35.90;24.00;;;;;;;;;;5035376;28;20226;-57
2021/11/19 06:02:28;;;;;;;37.27;23.83;;;;;;;;;;5035800;28;20836;-55
2021/11/19 06:04:56;;;;;;;39.33;24.80;;;;;;;;;;5035639;28;20445;-56
2021/11/19 06:07:25;;;;;;;41.77;26.00;;;;;;;;;;5035677;28;20476;-56
2021/11/19 06:09:53;;;;;;;42.83;26.27;;;;;;;;;;5035113;28;20504;-55
2021/11/19 06:12:22;;;;;;;44.57;27.57;;;;;;;;;;5035317;28;20464;-56
2021/11/19 06:14:51;;;;;;;41.70;23.70;;;;;;;;;;5034831;28;20445;-55
2021/11/19 06:17:20;;;;;;;41.20;25.88;;;;;;;;;;5035231;28;20449;-56
2021/11/19 06:19:48;;;;;;;41.60;26.37;;;;;;;;;;5035127;28;20234;-56
2021/11/19 06:22:18;;;;;;;39.63;25.27;;;;;;;;;;5035418;28;20433;-56
2021/11/19 06:24:47;;;;;;;45.10;26.03;;;;;;;;;;5035009;28;20471;-56
2021/11/19 06:27:22;;;;;;;43.80;26.83;;;;;;;;;;5034927;28;20449;-55
2021/11/19 06:29:49;;;;;;;45.13;27.33;;;;;;;;;;5034198;28;20968;-56
2021/11/19 06:32:16;;;;;;;42.53;25.70;;;;;;;;;;5034563;28;20453;-56
2021/11/19 06:34:44;;;;;;;50.23;28.50;;;;;;;;;;5034440;28;20447;-56
2021/11/19 06:37:12;;;;;;;52.60;29.03;;;;;;;;;;5034690;28;20870;-56
2021/11/19 06:39:41;;;;;;;48.03;29.17;;;;;;;;;;5034219;28;20825;-57
2021/11/19 06:42:09;;;;;;;44.83;28.47;;;;;;;;;;5034650;28;20816;-56
2021/11/19 06:44:38;;;;;;;44.73;29.47;;;;;;;;;;5034315;28;20482;-55
2021/11/19 06:47:06;;;;;;;45.80;27.47;;;;;;;;;;5034299;28;20445;-55
2021/11/19 06:49:34;;;;;;;44.00;27.90;;;;;;;;;;5033933;28;20485;-56
2021/11/19 06:52:02;;;;;;;46.42;27.70;;;;;;;;;;5034329;28;20470;-55
2021/11/19 06:54:29;;;;;;;47.77;27.40;;;;;;;;;;5034071;28;20207;-55
2021/11/19 06:56:57;;;;;;;49.90;29.00;;;;;;;;;;5034404;28;20889;-56
2021/11/19 06:59:24;;;;;;;47.80;28.13;;;;;;;;;;5034649;28;20441;-55
2021/11/19 07:01:53;;;;;;;37.08;26.13;;;;;;;;;;5033835;28;20453;-56
2021/11/19 07:04:21;;;;;;;41.60;28.23;;;;;;;;;;5034132;28;20209;-56
2021/11/19 07:06:48;;;;;;;42.23;25.33;;;;;;;;;;5034101;28;20437;-55
2021/11/19 07:09:17;;;;;;;40.57;26.60;;;;;;;;;;5033767;28;20480;-57
2021/11/19 07:11:45;;;;;;;39.40;24.87;;;;;;;;;;5034474;28;20468;-57
2021/11/19 07:14:12;;;;;;;44.20;27.00;;;;;;;;;;5034129;28;20968;-57
2021/11/19 07:16:40;;;;;;;39.40;24.77;;;;;;;;;;5033608;28;20445;-57
2021/11/19 07:19:09;;;;;;;41.73;24.60;;;;;;;;;;5033659;28;20444;-56
2021/11/19 07:21:37;;;;;;;34.27;22.80;;;;;;;;;;5033129;28;20485;-57
2021/11/19 07:24:05;;;;;;;37.07;24.80;;;;;;;;;;5033397;28;20441;-57
2021/11/19 07:26:32;;;;;;;36.60;24.07;;;;;;;;;;5033272;28;20449;-56
2021/11/19 07:29:00;;;;;;;38.40;24.93;;;;;;;;;;5032848;28;20476;-58
2021/11/19 07:31:28;;;;;;;33.23;23.43;;;;;;;;;;5033582;28;20469;-58
2021/11/19 07:33:55;;;;;;;31.50;23.67;;;;;;;;;;5033680;28;20520;-59
2021/11/19 07:36:24;;;;;;;30.23;21.93;;;;;;;;;;5033353;28;20456;-59
2021/11/19 07:38:53;;;;;;;27.03;20.17;;;;;;;;;;5033426;28;20446;-58
2021/11/19 07:41:22;;;;;;;24.93;19.20;;;;;;;;;;5032499;28;20559;-58
2021/11/19 07:43:49;;;;;;;27.77;18.80;;;;;;;;;;5032951;28;20452;-58
2021/11/19 07:46:19;;;;;;;23.90;18.37;;;;;;;;;;5033117;28;20476;-58
2021/11/19 07:48:47;;;;;;;25.87;18.77;;;;;;;;;;5032950;28;20469;-58
2021/11/19 07:51:16;;;;;;;25.13;17.87;;;;;;;;;;5033144;28;20476;-59
2021/11/19 07:53:46;;;;;;;24.87;17.20;;;;;;;;;;5032893;28;20453;-57
2021/11/19 07:56:14;;;;;;;21.93;16.17;;;;;;;;;;5032767;28;20947;-58
2021/11/19 07:58:42;;;;;;;21.77;16.03;;;;;;;;;;5032825;28;20448;-58
2021/11/19 08:01:10;;;;;;;20.80;15.07;;;;;;;;;;5032878;28;20508;-58
2021/11/19 08:03:37;;;;;;;22.00;16.37;;;;;;;;;;5032787;28;20452;-58
2021/11/19 08:06:05;;;;;;;16.83;14.90;;;;;;;;;;5032913;28;20449;-58
2021/11/19 08:08:34;;;;;;;20.07;15.40;;;;;;;;;;5032736;28;20486;-57
2021/11/19 08:11:04;;;;;;;16.50;13.20;;;;;;;;;;5032921;28;20544;-58
2021/11/19 08:13:32;;;;;;;19.10;14.27;;;;;;;;;;5032808;28;20441;-57
2021/11/19 08:15:59;;;;;;;19.90;15.83;;;;;;;;;;5032795;28;20543;-57
2021/11/19 08:18:27;;;;;;;18.47;13.17;;;;;;;;;;5033191;28;20451;-57
2021/11/19 08:20:56;;;;;;;19.53;13.00;;;;;;;;;;5032606;28;20853;-57
2021/11/19 08:23:24;;;;;;;19.23;13.60;;;;;;;;;;5032622;28;20445;-57
2021/11/19 08:25:52;;;;;;;17.40;14.30;;;;;;;;;;5032623;28;20449;-57
2021/11/19 08:28:20;;;;;;;19.43;13.63;;;;;;;;;;5032989;28;20481;-57
2021/11/19 08:30:49;;;;;;;17.20;14.27;;;;;;;;;;5032918;28;20536;-57
2021/11/19 08:33:17;;;;;;;16.77;13.10;;;;;;;;;;5032697;28;20811;-59
2021/11/19 08:35:45;;;;;;;19.77;13.37;;;;;;;;;;5032698;28;20509;-58
2021/11/19 08:38:13;;;;;;;19.13;14.60;;;;;;;;;;5032916;28;20449;-58
2021/11/19 08:40:44;;;;;;;16.40;14.00;;;;;;;;;;5032571;28;20461;-57
2021/11/19 08:43:11;;;;;;;18.97;14.83;;;;;;;;;;5032644;28;20902;-57
2021/11/19 08:45:40;;;;;;;17.40;14.03;;;;;;;;;;5032876;28;20456;-58
2021/11/19 08:48:08;;;;;;;17.00;13.40;;;;;;;;;;5032508;28;20452;-58
2021/11/19 08:50:38;;;;;;;15.93;13.03;;;;;;;;;;5032654;28;20469;-58
2021/11/19 08:53:06;;;;;;;18.50;14.67;;;;;;;;;;5033181;28;20466;-58
2021/11/19 08:55:33;;;;;;;15.50;13.80;;;;;;;;;;5036540;28;20991;-58
2021/11/19 08:58:00;;;;;;;18.10;15.27;;;;;;;;;;5036514;28;20452;-59
2021/11/19 09:00:29;;;;;;;17.73;14.27;;;;;;;;;;5036591;28;20559;-57
2021/11/19 09:02:58;;;;;;;17.33;12.97;;;;;;;;;;5036431;28;20455;-57
2021/11/19 09:05:26;;;;;;;21.70;16.37;;;;;;;;;;5035985;28;20445;-57
2021/11/19 09:07:54;;;;;;;18.80;15.30;;;;;;;;;;5036074;28;20452;-57
2021/11/19 09:10:21;;;;;;;21.93;15.33;;;;;;;;;;5036816;28;20488;-58
2021/11/19 09:12:50;;;;;;;20.00;15.00;;;;;;;;;;5036125;28;20478;-56
2021/11/19 09:15:19;;;;;;;21.50;16.13;;;;;;;;;;5036089;28;20524;-58
2021/11/19 09:18:02;;;;;;;23.20;14.77;;;;;;;;;;5036116;28;20862;-58
2021/11/19 09:20:37;;;;;;;24.43;16.20;;;;;;;;;;5023551;28;20509;-57
2021/11/19 09:23:07;;;;;;;17.77;15.07;;;;;;;;;;5035806;28;20421;-58
2021/11/19 09:25:35;;;;;;;20.77;16.37;;;;;;;;;;5035939;28;20449;-58
2021/11/19 09:28:03;;;;;;;20.73;15.40;;;;;;;;;;5035907;28;20811;-57
2021/11/19 09:30:37;;;;;;;16.50;14.50;;;;;;;;;;5035616;28;20572;-58
2021/11/19 09:33:05;;;;;;;18.57;14.00;;;;;;;;;;5035909;28;20513;-56
2021/11/19 09:35:35;;;;;;;19.27;15.07;;;;;;;;;;5035278;28;20960;-57
2021/11/19 09:38:03;;;;;;;17.40;13.80;;;;;;;;;;5035146;28;20464;-58
2021/11/19 09:40:32;;;;;;;17.70;14.20;;;;;;;;;;5035334;28;20457;-57
2021/11/19 09:43:03;;;;;;;17.30;13.10;;;;;;;;;;5035413;28;20449;-57
2021/11/19 09:45:32;;;;;;;17.40;13.20;;;;;;;;;;5036157;28;20831;-57
2021/11/19 09:48:18;;;;;;;14.83;12.77;;;;;;;;;;5035930;28;20445;-57
2021/11/19 09:51:12;;;;;;;16.83;13.70;;;;;;;;;;5035639;28;20476;-57
2021/11/19 09:53:58;;;;;;;14.37;12.63;;;;;;;;;;5035859;28;20425;-58
2021/11/19 09:56:31;;;;;;;15.80;13.57;;;;;;;;;;5035679;28;20445;-58
2021/11/19 09:59:02;;;;;;;17.83;14.20;;;;;;;;;;5035671;28;20780;-57
2021/11/19 10:01:38;;;;;;;14.37;11.87;;;;;;;;;;5035110;28;20465;-59
2021/11/19 10:04:17;;;;;;;18.20;14.23;;;;;;;;;;5035405;28;20450;-58
2021/11/19 10:06:48;;;;;;;16.63;13.50;;;;;;;;;;5034834;28;20426;-57
2021/11/19 10:09:18;;;;;;;15.10;11.90;;;;;;;;;;5035076;28;20466;-57
2021/11/19 10:11:50;;;;;;;18.27;14.20;;;;;;;;;;5035062;28;20472;-58
2021/11/19 10:14:35;;;;;;;16.90;14.00;;;;;;;;;;5034814;28;20442;-58
2021/11/19 10:17:15;;;;;;;17.33;13.83;;;;;;;;;;5034491;28;20906;-58
2021/11/19 10:19:45;;;;;;;15.90;13.90;;;;;;;;;;5034660;28;20449;-58
2021/11/19 10:22:21;;;;;;;17.70;13.33;;;;;;;;;;5050469;22;20497;-55
2021/11/19 10:24:51;;;;;;;16.73;14.23;;;;;;;;;;5034998;28;20441;-56
2021/11/19 10:27:25;;;;;;;20.17;14.60;;;;;;;;;;5034362;28;20437;-56
2021/11/19 10:29:58;;;;;;;14.73;13.13;;;;;;;;;;5034087;28;20476;-56
2021/11/19 10:32:27;;;;;;;14.63;12.97;;;;;;;;;;5034281;28;21007;-56
2021/11/19 10:34:58;;;;;;;19.17;14.07;;;;;;;;;;5034602;28;20456;-55
2021/11/19 10:37:44;;;;;;;18.10;14.77;;;;;;;;;;5034475;28;20429;-56
2021/11/19 10:40:25;;;;;;;17.30;13.60;;;;;;;;;;5034513;28;20422;-56
2021/11/19 10:43:11;;;;;;;19.63;15.17;;;;;;;;;;5034273;28;20468;-54
2021/11/19 10:45:57;;;;;;;17.20;14.03;;;;;;;;;;5034586;28;20452;-54
2021/11/19 10:48:49;;;;;;;15.80;13.87;;;;;;;;;;5034448;28;20445;-54
2021/11/19 10:51:34;;;;;;;17.77;14.23;;;;;;;;;;5033857;28;20994;-56
2021/11/19 10:54:25;;;;;;;17.10;13.87;;;;;;;;;;5033376;28;20470;-54
2021/11/19 10:56:58;;;;;;;18.00;13.40;;;;;;;;;;5034095;28;20424;-55
2021/11/19 10:59:28;;;;;;;15.97;13.53;;;;;;;;;;5033932;28;20516;-56
2021/11/19 11:01:59;;;;;;;16.17;14.47;;;;;;;;;;5034009;28;20470;-56
2021/11/19 11:04:30;;;;;;;20.23;14.00;;;;;;;;;;5033633;28;20480;-57
2021/11/19 11:07:12;;;;;;;15.00;12.80;;;;;;;;;;5034015;28;20452;-56
2021/11/19 11:09:45;;;;;;;17.13;14.00;;;;;;;;;;5034273;28;20507;-58
2021/11/19 11:12:24;;;;;;;16.93;13.50;;;;;;;;;;5034821;28;20873;-56
2021/11/19 11:15:02;;;;;;;14.00;12.60;;;;;;;;;;5034509;28;20467;-57
2021/11/19 11:17:30;;;;;;;14.63;13.03;;;;;;;;;;5033534;28;20440;-57
2021/11/19 11:20:01;;;;;;;18.80;14.40;;;;;;;;;;5034487;28;20444;-57
2021/11/19 11:22:30;;;;;;;17.70;14.07;;;;;;;;;;5033721;28;20480;-57
2021/11/19 11:25:01;;;;;;;14.80;13.07;;;;;;;;;;5033955;28;20443;-55
2021/11/19 11:27:36;;;;;;;15.97;13.10;;;;;;;;;;5034069;28;20802;-58
2021/11/19 11:30:06;;;;;;;17.83;12.87;;;;;;;;;;5033489;28;20500;-56
2021/11/19 11:32:39;;;;;;;13.90;12.23;;;;;;;;;;5033152;28;20476;-55
2021/11/19 11:35:20;;;;;;;14.93;12.37;;;;;;;;;;5033617;28;20805;-57
2021/11/19 11:37:54;;;;;;;15.37;13.57;;;;;;;;;;5033181;28;20473;-55
2021/11/19 11:40:26;;;;;;;16.03;13.13;;;;;;;;;;5033132;28;20915;-54
2021/11/19 11:42:55;;;;;;;17.17;13.23;;;;;;;;;;5033496;28;20438;-53
2021/11/19 11:45:26;;;;;;;17.80;13.03;;;;;;;;;;5033096;28;20444;-57
2021/11/19 11:48:06;;;;;;;17.50;13.77;;;;;;;;;;5032868;28;20433;-56
2021/11/19 11:50:39;;;;;;;16.50;14.63;;;;;;;;;;5033118;28;20488;-57
2021/11/19 11:53:10;;;;;;;15.57;13.60;;;;;;;;;;5033228;28;20842;-53
2021/11/19 11:55:39;;;;;;;16.87;13.80;;;;;;;;;;5033102;28;20433;-58
2021/11/19 11:58:12;;;;;;;16.13;13.17;;;;;;;;;;5032780;28;20452;-57
2021/11/19 12:00:46;;;;;;;15.77;14.00;;;;;;;;;;5032728;28;20939;-57
2021/11/19 12:03:18;;;;;;;18.20;14.07;;;;;;;;;;5033179;28;20437;-55
2021/11/19 12:05:51;;;;;;;16.27;12.53;;;;;;;;;;5033579;28;20429;-56
2021/11/19 12:08:37;;;;;;;17.00;14.03;;;;;;;;;;5033310;28;20442;-57
2021/11/19 12:11:11;;;;;;;16.77;13.40;;;;;;;;;;5032339;28;20491;-56
2021/11/19 12:13:41;;;;;;;16.63;13.20;;;;;;;;;;5033263;28;20869;-54
2021/11/19 12:16:13;;;;;;;18.23;12.90;;;;;;;;;;5033099;28;20451;-55
2021/11/19 12:18:42;;;;;;;17.60;13.73;;;;;;;;;;5032618;28;20443;-55
2021/11/19 12:21:22;;;;;;;16.17;13.27;;;;;;;;;;5032915;28;20477;-57
2021/11/19 12:23:51;;;;;;;18.97;13.10;;;;;;;;;;5032457;28;20434;-56
2021/11/19 12:26:29;;;;;;;15.50;13.20;;;;;;;;;;5032386;28;20448;-55
2021/11/19 12:29:01;;;;;;;17.80;13.37;;;;;;;;;;5034185;28;20443;-56
2021/11/19 12:31:30;;;;;;;18.40;14.60;;;;;;;;;;5036693;28;20804;-56
2021/11/19 12:33:59;;;;;;;17.60;14.67;;;;;;;;;;5036462;28;20470;-56
2021/11/19 12:36:31;;;;;;;16.53;13.63;;;;;;;;;;5036189;28;20976;-57
2021/11/19 12:38:59;;;;;;;18.03;14.03;;;;;;;;;;5036458;28;20436;-55
2021/11/19 12:41:33;;;;;;;18.90;15.07;;;;;;;;;;5036616;28;20468;-55
2021/11/19 12:44:20;;;;;;;15.53;13.90;;;;;;;;;;5037067;28;20888;-55
2021/11/19 12:46:56;;;;;;;17.87;14.70;;;;;;;;;;5036270;28;20419;-55
2021/11/19 12:49:34;;;;;;;19.10;14.70;;;;;;;;;;5036308;28;20437;-55
2021/11/19 12:52:04;;;;;;;19.37;14.37;;;;;;;;;;5036452;28;20975;-56
2021/11/19 12:54:36;;;;;;;16.00;12.37;;;;;;;;;;5038350;28;20458;-56
2021/11/19 12:57:14;;;;;;;15.50;13.37;;;;;;;;;;5037373;28;20427;-55
2021/11/19 12:59:53;;;;;;;17.43;13.93;;;;;;;;;;5037546;28;20429;-55
2021/11/19 13:02:26;;;;;;;22.17;14.10;;;;;;;;;;5037790;28;20478;-55
2021/11/19 13:05:09;;;;;;;21.27;15.37;;;;;;;;;;5037999;28;20432;-56
2021/11/19 13:07:43;;;;;;;17.67;13.77;;;;;;;;;;5037266;28;20482;-56
2021/11/19 13:10:25;;;;;;;18.53;13.00;;;;;;;;;;5037807;28;20615;-58
2021/11/19 13:13:21;;;;;;;22.03;15.57;;;;;;;;;;5036967;28;20492;-56
2021/11/19 13:15:51;;;;;;;24.63;16.40;;;;;;;;;;5037027;28;20427;-56
2021/11/19 13:18:27;;;;;;;21.73;14.50;;;;;;;;;;5036539;28;20457;-56
2021/11/19 13:20:57;;;;;;;18.80;15.60;;;;;;;;;;5036334;28;20471;-55
2021/11/19 13:23:38;;;;;;;20.43;14.07;;;;;;;;;;5035719;28;20432;-55
2021/11/19 13:26:20;;;;;;;18.67;15.30;;;;;;;;;;5035733;28;20429;-56
2021/11/19 13:28:52;;;;;;;19.17;15.73;;;;;;;;;;5035439;28;20445;-56
2021/11/19 13:31:28;;;;;;;21.63;15.30;;;;;;;;;;5035548;28;20490;-56
2021/11/19 13:34:19;;;;;;;20.07;15.67;;;;;;;;;;5035688;28;20466;-56
2021/11/19 13:36:47;;;;;;;21.67;16.63;;;;;;;;;;5035218;28;20441;-57
2021/11/19 13:39:37;;;;;;;22.00;16.40;;;;;;;;;;5035463;28;20439;-55
2021/11/19 13:42:22;;;;;;;22.47;16.23;;;;;;;;;;5035365;28;20523;-56
2021/11/19 13:44:53;;;;;;;21.97;16.40;;;;;;;;;;5025344;28;20477;-55
2021/11/19 13:47:30;;;;;;;19.40;15.50;;;;;;;;;;5035297;28;20430;-56
2021/11/19 13:50:04;;;;;;;24.87;16.47;;;;;;;;;;5035152;28;20491;-56
2021/11/19 13:52:41;;;;;;;22.20;16.30;;;;;;;;;;5035219;28;20810;-55
2021/11/19 13:55:27;;;;;;;20.90;18.43;;;;;;;;;;5035344;28;20472;-56
2021/11/19 13:57:56;;;;;;;20.57;16.50;;;;;;;;;;5034740;28;20431;-57
2021/11/19 14:00:31;;;;;;;26.30;19.20;;;;;;;;;;5034939;28;20435;-57
2021/11/19 14:02:59;;;;;;;24.33;17.63;;;;;;;;;;5035524;28;20458;-56
2021/11/19 14:05:27;;;;;;;22.13;17.33;;;;;;;;;;5034629;28;20445;-55
2021/11/19 14:07:57;;;;;;;25.00;18.57;;;;;;;;;;5034850;28;20446;-55
2021/11/19 14:10:29;;;;;;;26.30;17.40;;;;;;;;;;5034502;28;20852;-57
2021/11/19 14:13:00;;;;;;;27.73;17.57;;;;;;;;;;5034705;28;20758;-57
2021/11/19 14:15:32;;;;;;;24.67;18.53;;;;;;;;;;5035061;28;20441;-55
2021/11/19 14:18:16;;;;;;;25.00;18.20;;;;;;;;;;5034473;28;20435;-56
2021/11/19 14:23:38;;;;;;;23.40;19.87;;;;;;;;;;5034945;28;20769;-55
2021/11/19 14:26:08;;;;;;;29.00;18.53;;;;;;;;;;5034627;28;20440;-56
2021/11/19 14:28:37;;;;;;;22.57;17.97;;;;;;;;;;5035029;28;20450;-55
2021/11/19 14:31:08;;;;;;;26.60;19.07;;;;;;;;;;5034718;28;20492;-56
2021/11/19 14:33:37;;;;;;;28.67;19.20;;;;;;;;;;5034845;28;20441;-57
2021/11/19 14:36:16;;;;;;;23.07;18.43;;;;;;;;;;5034289;28;20948;-55
2021/11/19 14:38:46;;;;;;;26.97;18.90;;;;;;;;;;5034176;28;20433;-55
2021/11/19 14:41:18;;;;;;;21.87;17.30;;;;;;;;;;5034432;28;20505;-56